Time;durP1;ratioP1;P1;durP2;ratioP2;P2;SDS_P1;SDS_P2;PMS_P1;PMS_P2;Temp;Humidity;BMP_temperature;BMP_pressure;BME280_temperature;BME280_humidity;BME280_pressure;Samples;Min_cycle;Max_cycle;Signal;HPM_P1;HPM_P2
2022/05/15 00:00:37;;;;;;;12.25;3.75;;;13.20;83.70;;;;;;5111560;28;20027;-45
2022/05/15 00:03:12;;;;;;;10.23;3.50;;;13.20;84.60;;;;;;5091410;28;20069;-48
2022/05/15 00:05:38;;;;;;;10.02;3.78;;;13.20;83.50;;;;;;5090282;28;20020;-51
2022/05/15 00:08:04;;;;;;;10.93;3.78;;;13.20;83.80;;;;;;5091128;28;20049;-54
2022/05/15 00:10:30;;;;;;;9.38;3.90;;;13.30;83.80;;;;;;5093353;28;20508;-47
2022/05/15 00:12:56;;;;;;;9.80;4.07;;;13.30;83.20;;;;;;5097819;28;20032;-43
2022/05/15 00:15:22;;;;;;;11.00;3.83;;;13.30;84.20;;;;;;5090920;28;20838;-45
2022/05/15 00:17:48;;;;;;;11.55;4.10;;;13.30;84.30;;;;;;5090844;28;20107;-53
2022/05/15 00:20:13;;;;;;;11.43;3.40;;;13.30;83.70;;;;;;5091065;28;20024;-47
2022/05/15 00:22:40;;;;;;;10.35;3.50;;;13.40;83.70;;;;;;5111309;28;20030;-50
2022/05/15 00:25:06;;;;;;;11.20;3.55;;;13.40;83.60;;;;;;5092377;28;20468;-45
2022/05/15 00:27:32;;;;;;;10.50;3.88;;;13.40;83.70;;;;;;5090922;28;20465;-48
2022/05/15 00:29:58;;;;;;;11.80;3.90;;;13.40;84.30;;;;;;5090873;28;20122;-49
2022/05/15 00:32:23;;;;;;;10.20;3.67;;;13.40;84.00;;;;;;5104285;28;20063;-50
2022/05/15 00:34:49;;;;;;;12.15;3.63;;;13.40;84.60;;;;;;5088983;28;20044;-48
2022/05/15 00:37:14;;;;;;;8.80;3.58;;;13.40;84.40;;;;;;5089222;28;20056;-50
2022/05/15 00:39:40;;;;;;;12.10;3.55;;;13.50;85.20;;;;;;5075316;28;20400;-40
2022/05/15 00:42:09;;;;;;;10.52;3.67;;;13.40;85.20;;;;;;5102631;28;20024;-48
2022/05/15 00:44:35;;;;;;;11.43;4.28;;;13.40;84.40;;;;;;5102680;28;20024;-44
2022/05/15 00:47:00;;;;;;;14.95;4.05;;;13.50;83.80;;;;;;5090759;28;20031;-60
2022/05/15 00:49:27;;;;;;;15.05;4.13;;;13.40;83.50;;;;;;5091061;28;20069;-49
2022/05/15 00:51:58;;;;;;;11.43;3.92;;;13.50;83.60;;;;;;5100584;28;20222;-44
2022/05/15 00:54:37;;;;;;;11.98;3.70;;;13.50;83.50;;;;;;5100711;28;20035;-49
2022/05/15 00:57:07;;;;;;;15.45;4.03;;;13.50;83.60;;;;;;5090786;28;20019;-46
2022/05/15 00:59:39;;;;;;;12.95;3.67;;;13.60;83.80;;;;;;5089356;28;20052;-59
2022/05/15 01:02:04;;;;;;;10.43;3.45;;;13.60;83.70;;;;;;5106005;28;20023;-49
2022/05/15 01:04:31;;;;;;;13.13;3.72;;;13.60;84.00;;;;;;5110962;28;20028;-52
2022/05/15 01:06:57;;;;;;;9.45;3.75;;;13.60;84.10;;;;;;5110912;28;20050;-52
2022/05/15 01:09:23;;;;;;;8.52;3.60;;;13.60;84.50;;;;;;5111003;28;20480;-55
2022/05/15 01:11:49;;;;;;;10.85;3.95;;;13.60;84.90;;;;;;5097100;28;20040;-45
2022/05/15 01:14:17;;;;;;;12.82;4.47;;;13.60;85.40;;;;;;5090708;28;20017;-55
2022/05/15 01:16:43;;;;;;;12.77;4.50;;;13.70;85.90;;;;;;5091978;28;20020;-51
2022/05/15 01:19:09;;;;;;;14.40;4.78;;;13.70;86.80;;;;;;5094123;28;20465;-54
2022/05/15 01:21:49;;;;;;;12.63;4.50;;;13.60;88.20;;;;;;5105493;28;20026;-39
2022/05/15 01:24:15;;;;;;;13.68;4.63;;;13.60;89.10;;;;;;5114480;28;20381;-52
2022/05/15 01:26:41;;;;;;;17.60;4.63;;;13.60;89.40;;;;;;5114360;28;20036;-51
2022/05/15 01:29:07;;;;;;;17.15;4.75;;;13.60;89.00;;;;;;5114543;28;20032;-49
2022/05/15 01:31:34;;;;;;;15.68;5.45;;;13.60;90.20;;;;;;5103087;28;20055;-39
2022/05/15 01:34:00;;;;;;;16.17;5.30;;;13.60;89.60;;;;;;5083685;28;20029;-46
2022/05/15 01:36:26;;;;;;;19.65;5.18;;;13.60;90.50;;;;;;5073391;28;20379;-47
2022/05/15 01:38:52;;;;;;;20.83;5.45;;;13.60;90.50;;;;;;5073316;28;20036;-43
2022/05/15 01:41:18;;;;;;;18.90;5.88;;;13.60;89.70;;;;;;5092182;28;20028;-40
2022/05/15 01:43:46;;;;;;;20.20;6.22;;;13.60;90.20;;;;;;5099884;28;20024;-41
2022/05/15 01:46:12;;;;;;;18.90;6.07;;;13.70;90.10;;;;;;5092353;28;20438;-56
2022/05/15 01:48:39;;;;;;;13.07;5.65;;;13.70;90.00;;;;;;5093599;28;20055;-51
2022/05/15 01:51:05;;;;;;;12.35;5.35;;;13.70;90.10;;;;;;5100870;28;20031;-53
2022/05/15 01:53:31;;;;;;;23.42;6.55;;;13.70;90.60;;;;;;5113780;28;20544;-45
2022/05/15 01:55:56;;;;;;;12.93;5.78;;;13.70;90.50;;;;;;5113788;28;20117;-49
2022/05/15 01:58:22;;;;;;;12.73;6.05;;;13.70;90.50;;;;;;5113685;28;20093;-44
2022/05/15 02:00:48;;;;;;;17.60;5.90;;;13.70;90.70;;;;;;5108528;28;20012;-57
2022/05/15 02:03:14;;;;;;;17.60;5.50;;;13.80;90.70;;;;;;5093235;28;20031;-50
2022/05/15 02:05:39;;;;;;;13.10;5.93;;;13.70;91.20;;;;;;5093366;28;20027;-42
2022/05/15 02:08:05;;;;;;;21.10;6.80;;;13.70;91.40;;;;;;5093182;28;20581;-55
2022/05/15 02:10:31;;;;;;;16.25;6.20;;;13.80;91.00;;;;;;5093123;28;20032;-48
2022/05/15 02:12:56;;;;;;;18.08;6.40;;;13.70;91.10;;;;;;5093080;28;20116;-52
2022/05/15 02:15:22;;;;;;;16.98;5.68;;;13.70;91.00;;;;;;5091786;28;20520;-42
2022/05/15 02:17:48;;;;;;;14.38;6.40;;;13.70;90.80;;;;;;5093006;28;20089;-44
2022/05/15 02:20:15;;;;;;;18.50;6.97;;;13.70;90.70;;;;;;5095111;28;20118;-43
2022/05/15 02:22:41;;;;;;;16.40;6.47;;;13.70;90.70;;;;;;5113368;28;20020;-55
2022/05/15 02:25:09;;;;;;;14.02;6.78;;;13.70;90.50;;;;;;5113377;28;20027;-52
2022/05/15 02:27:35;;;;;;;12.00;5.60;;;13.70;90.00;;;;;;5112647;27;20026;-42
2022/05/15 02:30:03;;;;;;;14.57;7.00;;;13.70;90.20;;;;;;5113140;28;20384;-43
2022/05/15 02:32:28;;;;;;;14.18;6.88;;;13.70;90.30;;;;;;5113020;27;20487;-45
2022/05/15 02:34:54;;;;;;;18.42;6.43;;;13.70;91.30;;;;;;5112976;28;20126;-53
2022/05/15 02:37:20;;;;;;;11.40;6.72;;;13.70;90.80;;;;;;5113029;28;20020;-40
2022/05/15 02:39:45;;;;;;;10.80;5.97;;;13.70;91.20;;;;;;5113135;28;20092;-44
2022/05/15 02:42:11;;;;;;;13.55;5.55;;;13.70;91.20;;;;;;5113058;27;20015;-45
2022/05/15 02:44:37;;;;;;;16.15;6.00;;;13.70;90.40;;;;;;5112781;28;20433;-50
2022/05/15 02:47:03;;;;;;;16.35;6.53;;;13.80;90.00;;;;;;5112930;28;20027;-49
2022/05/15 02:52:13;;;;;;;18.40;6.78;;;13.90;88.80;;;;;;5111512;28;20060;-51
2022/05/15 02:54:39;;;;;;;14.02;6.18;;;13.90;89.70;;;;;;5112682;28;20107;-43
2022/05/15 02:57:06;;;;;;;13.73;6.75;;;13.90;90.00;;;;;;5112812;28;20030;-48
2022/05/15 02:59:33;;;;;;;15.40;6.82;;;13.90;87.80;;;;;;5112458;28;20031;-46
2022/05/15 03:01:59;;;;;;;14.18;6.57;;;13.80;89.70;;;;;;5112630;28;20020;-54
2022/05/15 03:04:25;;;;;;;17.50;6.70;;;13.80;89.70;;;;;;5112352;28;20024;-53
2022/05/15 03:06:51;;;;;;;23.60;7.63;;;13.80;88.90;;;;;;5112416;28;20818;-50
2022/05/15 03:09:17;;;;;;;15.45;7.68;;;13.70;87.30;;;;;;5112320;28;20024;-50
2022/05/15 03:11:42;;;;;;;19.70;7.70;;;13.70;89.00;;;;;;5111026;28;20059;-43
2022/05/15 03:14:08;;;;;;;20.27;7.93;;;13.70;87.80;;;;;;5112210;28;20020;-40
2022/05/15 03:16:34;;;;;;;19.85;7.68;;;13.70;87.80;;;;;;5112287;28;20035;-39
2022/05/15 03:18:59;;;;;;;17.17;7.05;;;13.70;88.10;;;;;;5111896;28;20085;-46
2022/05/15 03:21:31;;;;;;;16.55;6.43;;;13.70;88.10;;;;;;5097669;28;20020;-52
2022/05/15 03:23:58;;;;;;;15.13;7.15;;;13.80;88.80;;;;;;5089858;28;20059;-51
2022/05/15 03:26:25;;;;;;;19.33;7.88;;;13.80;89.40;;;;;;5079841;28;20012;-53
2022/05/15 03:28:52;;;;;;;15.27;7.38;;;13.70;86.70;;;;;;5071482;28;20243;-45
2022/05/15 03:31:18;;;;;;;18.73;7.80;;;13.80;87.30;;;;;;5074146;28;20473;-46
2022/05/15 03:33:43;;;;;;;20.88;7.53;;;13.80;88.70;;;;;;5091548;28;20024;-43
2022/05/15 03:36:12;;;;;;;18.40;6.80;;;13.80;89.00;;;;;;5091507;28;20097;-46
2022/05/15 03:38:39;;;;;;;21.20;8.50;;;13.80;89.50;;;;;;5091426;28;20480;-41
2022/05/15 03:41:05;;;;;;;19.35;7.78;;;13.70;89.20;;;;;;5076013;28;20069;-54
2022/05/15 03:43:31;;;;;;;16.40;7.18;;;13.70;89.80;;;;;;5069884;28;20083;-40
2022/05/15 03:45:56;;;;;;;17.23;6.78;;;13.70;89.30;;;;;;5090256;28;20032;-47
2022/05/15 03:48:22;;;;;;;16.30;6.93;;;13.70;90.00;;;;;;5091348;28;20026;-43
2022/05/15 03:50:48;;;;;;;16.60;7.15;;;13.70;90.00;;;;;;5091862;28;20114;-51
2022/05/15 03:53:13;;;;;;;19.27;6.93;;;13.60;90.00;;;;;;5091566;28;20384;-49
2022/05/15 03:55:39;;;;;;;18.40;7.53;;;13.60;90.00;;;;;;5091333;28;20036;-48
2022/05/15 03:58:05;;;;;;;13.18;6.63;;;13.60;89.50;;;;;;5091275;28;20381;-49
2022/05/15 04:00:31;;;;;;;15.13;7.13;;;13.50;88.70;;;;;;5091153;28;20028;-45
2022/05/15 04:02:56;;;;;;;19.15;7.90;;;13.50;89.00;;;;;;5091158;28;20020;-47
2022/05/15 04:05:22;;;;;;;18.30;7.07;;;13.60;89.70;;;;;;5091429;28;20024;-44
2022/05/15 04:07:50;;;;;;;19.85;7.55;;;13.60;89.30;;;;;;5091322;28;20476;-48
2022/05/15 04:10:18;;;;;;;19.92;7.50;;;13.60;90.00;;;;;;5091142;28;20567;-48
2022/05/15 04:12:44;;;;;;;17.02;6.70;;;13.60;90.10;;;;;;5091008;28;20082;-49
2022/05/15 04:15:11;;;;;;;16.95;6.72;;;13.60;90.00;;;;;;5102407;28;20024;-44
2022/05/15 04:17:45;;;;;;;12.63;6.80;;;13.60;90.30;;;;;;5111361;28;20028;-45
2022/05/15 04:20:13;;;;;;;11.57;7.03;;;13.60;90.40;;;;;;5111373;28;20066;-44
2022/05/15 04:22:38;;;;;;;12.57;6.30;;;13.50;90.60;;;;;;5111469;28;20012;-47
2022/05/15 04:25:05;;;;;;;19.63;6.88;;;13.50;90.70;;;;;;5111308;28;20031;-48
2022/05/15 04:27:30;;;;;;;17.92;7.53;;;13.50;90.40;;;;;;5111389;28;20020;-51
2022/05/15 04:29:56;;;;;;;18.35;7.53;;;13.50;89.70;;;;;;5111277;28;20103;-48
2022/05/15 04:32:22;;;;;;;14.80;6.90;;;13.50;90.20;;;;;;5109932;28;20027;-44
2022/05/15 04:34:48;;;;;;;15.60;6.78;;;13.50;90.60;;;;;;5111074;28;20141;-41
2022/05/15 04:37:14;;;;;;;18.45;8.07;;;13.50;90.40;;;;;;5109917;28;20072;-50
2022/05/15 04:39:39;;;;;;;16.88;6.68;;;13.50;90.50;;;;;;5111186;28;20035;-40
2022/05/15 04:42:06;;;;;;;15.23;6.63;;;13.50;90.40;;;;;;5111253;28;20030;-47
2022/05/15 04:44:31;;;;;;;15.18;6.55;;;13.50;90.70;;;;;;5105361;28;20043;-48
2022/05/15 04:46:57;;;;;;;14.75;7.32;;;13.50;90.60;;;;;;5090787;28;20024;-52
2022/05/15 04:49:22;;;;;;;16.30;7.15;;;13.50;90.90;;;;;;5090760;28;20036;-51
2022/05/15 04:51:48;;;;;;;18.23;7.40;;;13.50;91.00;;;;;;5092410;28;20016;-57
2022/05/15 04:54:14;;;;;;;19.02;7.50;;;13.50;90.80;;;;;;5094696;28;20035;-49
2022/05/15 04:56:40;;;;;;;16.00;7.38;;;13.50;90.80;;;;;;5094643;28;20077;-50
2022/05/15 04:59:05;;;;;;;18.27;7.18;;;13.60;91.40;;;;;;5094339;28;20032;-46
2022/05/15 05:01:31;;;;;;;17.02;7.13;;;13.60;90.70;;;;;;5094353;28;20085;-49
2022/05/15 05:03:58;;;;;;;14.65;7.03;;;13.60;91.20;;;;;;5094587;28;20024;-50
2022/05/15 05:06:26;;;;;;;13.50;7.40;;;13.70;91.60;;;;;;5094444;28;20024;-53
2022/05/15 05:08:52;;;;;;;15.85;7.05;;;13.70;91.60;;;;;;5093162;28;20024;-56
2022/05/15 05:11:18;;;;;;;15.23;7.63;;;13.70;91.30;;;;;;5094358;28;20031;-45
2022/05/15 05:13:44;;;;;;;18.08;6.97;;;13.70;91.40;;;;;;5095914;28;20089;-47
2022/05/15 05:16:10;;;;;;;19.80;7.88;;;13.70;91.10;;;;;;5114435;28;20369;-45
2022/05/15 05:18:36;;;;;;;15.10;7.88;;;13.70;91.10;;;;;;5114585;28;20046;-45
2022/05/15 05:21:02;;;;;;;11.38;6.55;;;13.80;91.60;;;;;;5114631;28;20050;-48
2022/05/15 05:23:28;;;;;;;16.63;7.35;;;13.80;91.50;;;;;;5114499;28;20503;-58
2022/05/15 05:25:53;;;;;;;17.42;8.18;;;13.80;91.50;;;;;;5113279;28;20020;-50
2022/05/15 05:28:19;;;;;;;15.07;7.47;;;13.80;91.60;;;;;;5114305;28;20055;-55
2022/05/15 05:30:45;;;;;;;16.50;7.45;;;13.80;91.70;;;;;;5114311;28;20068;-44
2022/05/15 05:33:11;;;;;;;18.02;7.88;;;13.90;91.80;;;;;;5114298;28;20024;-59
2022/05/15 05:35:38;;;;;;;20.88;8.27;;;13.90;91.80;;;;;;5114150;28;20039;-52
2022/05/15 05:38:04;;;;;;;16.20;7.20;;;13.90;91.30;;;;;;5114075;28;20027;-55
2022/05/15 05:40:30;;;;;;;17.40;7.60;;;13.90;91.10;;;;;;5114267;28;20043;-51
2022/05/15 05:42:56;;;;;;;20.83;8.35;;;13.90;90.60;;;;;;5114066;28;20028;-46
2022/05/15 05:45:22;;;;;;;18.50;8.13;;;14.00;89.60;;;;;;5098562;28;20032;-57
2022/05/15 05:47:49;;;;;;;15.30;7.43;;;14.00;89.50;;;;;;5093829;28;20039;-42
2022/05/15 05:50:17;;;;;;;21.77;7.97;;;14.00;89.90;;;;;;5093647;28;20031;-41
2022/05/15 05:52:43;;;;;;;17.60;7.45;;;14.00;89.40;;;;;;5093538;28;20380;-50
2022/05/15 05:55:12;;;;;;;19.65;7.88;;;14.00;89.50;;;;;;5093442;28;20034;-53
2022/05/15 05:57:39;;;;;;;18.95;8.65;;;14.00;89.60;;;;;;5093360;28;20024;-55
2022/05/15 06:00:07;;;;;;;19.38;7.30;;;14.00;89.30;;;;;;5093371;28;20105;-40
2022/05/15 06:02:32;;;;;;;20.65;7.78;;;14.00;89.60;;;;;;5093188;28;20109;-40
2022/05/15 06:04:58;;;;;;;19.45;8.30;;;14.00;90.00;;;;;;5093284;28;20113;-39
2022/05/15 06:07:27;;;;;;;21.92;9.07;;;14.00;90.20;;;;;;5093470;28;20028;-40
2022/05/15 06:09:53;;;;;;;23.00;8.70;;;14.00;90.00;;;;;;5093278;28;20058;-40
2022/05/15 06:12:23;;;;;;;17.85;8.18;;;13.90;89.70;;;;;;5093231;28;20020;-40
2022/05/15 06:14:49;;;;;;;13.52;7.15;;;13.90;90.00;;;;;;5105930;28;20028;-40
2022/05/15 06:17:14;;;;;;;19.02;7.88;;;13.90;90.00;;;;;;5113523;28;20537;-43
2022/05/15 06:19:41;;;;;;;16.85;8.25;;;13.90;90.00;;;;;;5113401;28;20024;-52
2022/05/15 06:22:07;;;;;;;19.30;9.25;;;13.90;90.50;;;;;;5113512;27;20023;-59
2022/05/15 06:24:33;;;;;;;19.55;8.38;;;13.90;90.00;;;;;;5113206;28;20487;-43
2022/05/15 06:26:59;;;;;;;21.90;9.60;;;13.90;90.00;;;;;;5113285;28;20020;-53
2022/05/15 06:29:26;;;;;;;17.33;8.75;;;13.90;89.20;;;;;;5113320;28;20020;-50
2022/05/15 06:31:52;;;;;;;21.30;9.30;;;13.90;88.90;;;;;;5113107;28;20027;-47
2022/05/15 06:34:17;;;;;;;23.70;9.43;;;13.90;89.10;;;;;;5113135;28;20110;-43
2022/05/15 06:36:43;;;;;;;25.02;9.73;;;13.90;89.50;;;;;;5111657;28;20477;-42
2022/05/15 06:39:10;;;;;;;21.13;10.05;;;13.90;89.60;;;;;;5112883;28;20499;-55
2022/05/15 06:41:36;;;;;;;29.83;10.30;;;13.90;90.00;;;;;;5111663;28;20035;-40
2022/05/15 06:44:01;;;;;;;24.83;10.57;;;13.90;90.00;;;;;;5096419;28;20028;-58
2022/05/15 06:46:28;;;;;;;28.58;10.80;;;13.90;90.00;;;;;;5092529;28;20030;-41
2022/05/15 06:48:54;;;;;;;21.25;9.98;;;13.90;89.20;;;;;;5092531;28;20036;-41
2022/05/15 06:51:19;;;;;;;23.65;10.00;;;13.90;89.10;;;;;;5092430;28;20028;-42
2022/05/15 06:53:47;;;;;;;24.13;10.07;;;14.00;89.20;;;;;;5092357;28;20028;-46
2022/05/15 06:58:58;;;;;;;28.23;9.88;;;14.00;89.70;;;;;;5092330;28;20124;-49
2022/05/15 07:01:24;;;;;;;29.73;10.30;;;14.10;89.50;;;;;;5092120;28;20353;-43
2022/05/15 07:03:50;;;;;;;25.10;10.05;;;14.20;88.80;;;;;;5092305;28;20485;-41
2022/05/15 07:06:15;;;;;;;22.90;8.70;;;14.30;89.20;;;;;;5092036;28;20028;-42
2022/05/15 07:08:41;;;;;;;24.63;9.98;;;14.30;89.20;;;;;;5092306;28;20485;-40
2022/05/15 07:11:07;;;;;;;22.20;10.07;;;14.50;90.00;;;;;;5092192;28;20032;-47
2022/05/15 07:13:33;;;;;;;22.27;8.80;;;14.60;88.30;;;;;;5103878;28;20051;-50
2022/05/15 07:15:59;;;;;;;22.10;9.55;;;14.80;88.50;;;;;;5112131;28;20418;-42
2022/05/15 07:18:25;;;;;;;18.42;9.15;;;14.90;86.50;;;;;;5112209;28;20023;-52
2022/05/15 07:20:51;;;;;;;22.85;9.63;;;15.00;87.10;;;;;;5112150;28;20050;-49
2022/05/15 07:23:18;;;;;;;19.25;8.50;;;15.20;85.70;;;;;;5112417;28;20027;-48
2022/05/15 07:25:44;;;;;;;18.38;8.85;;;15.40;86.00;;;;;;5112083;28;20563;-56
2022/05/15 07:28:10;;;;;;;22.63;8.98;;;15.70;85.60;;;;;;5112015;28;20056;-42
2022/05/15 07:30:36;;;;;;;18.60;7.90;;;16.10;83.20;;;;;;5112209;28;20096;-54
2022/05/15 07:33:01;;;;;;;24.70;8.25;;;16.50;81.90;;;;;;5112059;28;20063;-52
2022/05/15 07:35:28;;;;;;;19.60;8.27;;;16.70;77.50;;;;;;5111878;28;20116;-53
2022/05/15 07:37:54;;;;;;;18.48;7.80;;;16.90;78.90;;;;;;5111723;27;20034;-51
2022/05/15 07:40:20;;;;;;;18.65;7.50;;;17.00;77.20;;;;;;5111951;28;20055;-47
2022/05/15 07:42:46;;;;;;;22.50;8.13;;;17.20;78.70;;;;;;5103588;28;20027;-52
2022/05/15 07:45:13;;;;;;;19.02;7.50;;;17.20;74.40;;;;;;5091427;28;20396;-41
2022/05/15 07:47:39;;;;;;;15.40;7.70;;;17.30;75.10;;;;;;5091443;28;20484;-49
2022/05/15 07:50:06;;;;;;;15.80;6.80;;;17.30;73.20;;;;;;5091413;28;20024;-46
2022/05/15 07:52:32;;;;;;;19.00;7.55;;;17.30;75.20;;;;;;5091377;28;20024;-46
2022/05/15 07:54:57;;;;;;;16.08;7.80;;;17.30;74.00;;;;;;5091622;28;20082;-53
2022/05/15 07:57:23;;;;;;;17.52;7.45;;;17.30;76.80;;;;;;5091376;28;20053;-46
2022/05/15 07:59:49;;;;;;;17.40;7.78;;;17.30;77.70;;;;;;5091337;28;20047;-46
2022/05/15 08:02:14;;;;;;;23.33;8.80;;;17.30;77.70;;;;;;5091202;28;20023;-49
2022/05/15 08:10:10;;;;;;;19.80;9.07;;;17.10;76.80;;;;;;5095593;28;20058;-45
2022/05/15 08:12:35;;;;;;;18.63;7.85;;;17.10;76.80;;;;;;5091113;28;20032;-47
2022/05/15 08:15:03;;;;;;;17.05;9.18;;;17.00;80.40;;;;;;5091142;28;20499;-50
2022/05/15 08:17:28;;;;;;;21.52;8.48;;;16.90;77.80;;;;;;5091151;28;20074;-49
2022/05/15 08:25:24;;;;;;;16.63;8.13;;;16.60;84.10;;;;;;5091336;28;20031;-56
2022/05/15 08:27:49;;;;;;;19.55;7.45;;;16.50;83.60;;;;;;5094581;28;20099;-40
2022/05/15 08:30:15;;;;;;;16.58;8.05;;;16.40;85.00;;;;;;5095240;28;20023;-42
2022/05/15 08:32:41;;;;;;;15.43;8.40;;;16.30;84.60;;;;;;5095235;28;20024;-58
2022/05/15 08:35:08;;;;;;;16.85;8.10;;;16.10;85.60;;;;;;5093774;28;20044;-51
2022/05/15 08:37:33;;;;;;;18.88;9.40;;;16.00;83.60;;;;;;5095135;28;20047;-46
2022/05/15 08:39:59;;;;;;;20.02;9.02;;;16.00;88.00;;;;;;5100238;28;20064;-50
2022/05/15 08:42:50;;;;;;;19.75;8.55;;;15.90;88.20;;;;;;5094482;28;20027;-49
2022/05/15 08:45:20;;;;;;;18.90;9.27;;;15.80;87.30;;;;;;5094422;28;20492;-49
2022/05/15 08:47:51;;;;;;;17.08;8.32;;;15.80;88.40;;;;;;5094250;28;20031;-59
2022/05/15 08:50:20;;;;;;;18.80;8.73;;;15.70;90.50;;;;;;5094088;28;20396;-41
2022/05/15 08:52:59;;;;;;;17.30;9.23;;;15.70;90.00;;;;;;5094485;28;20028;-50
2022/05/15 08:55:43;;;;;;;18.30;9.45;;;15.60;89.70;;;;;;5094797;28;20032;-46
2022/05/15 08:58:19;;;;;;;25.65;10.02;;;15.50;89.00;;;;;;5094495;28;20039;-42
2022/05/15 09:00:50;;;;;;;22.65;10.93;;;15.40;89.00;;;;;;5093251;28;20779;-55
2022/05/15 09:03:19;;;;;;;22.38;11.05;;;15.30;90.30;;;;;;5096996;28;20016;-48
2022/05/15 09:06:09;;;;;;;23.85;11.75;;;15.20;90.40;;;;;;5099499;28;20039;-50
2022/05/15 09:08:43;;;;;;;25.90;12.10;;;15.00;91.60;;;;;;5081132;28;20047;-50
2022/05/15 09:11:10;;;;;;;25.05;12.35;;;14.90;91.50;;;;;;5082546;28;20060;-53
2022/05/15 09:13:51;;;;;;;29.45;12.32;;;14.80;91.60;;;;;;5079969;28;20020;-48
2022/05/15 09:16:22;;;;;;;24.17;12.43;;;14.90;91.70;;;;;;5090138;28;20020;-56
2022/05/15 09:18:48;;;;;;;25.27;12.73;;;14.90;91.80;;;;;;5094324;28;20055;-42
2022/05/15 09:21:17;;;;;;;26.77;12.82;;;15.00;92.40;;;;;;5094158;28;20028;-48
2022/05/15 09:23:54;;;;;;;24.83;12.02;;;15.10;92.30;;;;;;5094058;28;20031;-53
2022/05/15 09:26:26;;;;;;;26.50;13.15;;;15.10;91.90;;;;;;5092846;28;20035;-45
2022/05/15 09:28:53;;;;;;;22.10;11.70;;;15.10;91.40;;;;;;5093779;28;20396;-53
2022/05/15 09:31:22;;;;;;;24.27;11.30;;;15.20;91.00;;;;;;5093957;28;20020;-50
2022/05/15 09:34:02;;;;;;;26.40;11.57;;;15.40;91.80;;;;;;5100596;28;20026;-47
2022/05/15 09:36:30;;;;;;;25.15;11.73;;;15.60;91.40;;;;;;5108341;28;20048;-43
2022/05/15 09:39:28;;;;;;;26.52;11.40;;;15.70;91.50;;;;;;5091980;28;20024;-51
2022/05/15 09:45:14;;;;;;;19.13;8.82;;;16.00;90.90;;;;;;5092499;28;20082;-50
2022/05/15 09:47:43;;;;;;;20.13;10.10;;;16.10;90.00;;;;;;5091446;28;20070;-52
2022/05/15 09:50:30;;;;;;;24.77;8.65;;;16.20;90.60;;;;;;5092409;28;20065;-53
2022/05/15 09:52:57;;;;;;;16.90;8.27;;;16.50;90.50;;;;;;5092216;28;20036;-56
2022/05/15 09:55:27;;;;;;;19.75;8.27;;;16.70;88.30;;;;;;5092330;28;20020;-54
2022/05/15 09:58:01;;;;;;;21.92;8.10;;;16.90;89.60;;;;;;5092407;28;20099;-49
2022/05/15 10:00:29;;;;;;;21.35;7.95;;;17.20;88.30;;;;;;5092443;28;20040;-58
2022/05/15 10:03:03;;;;;;;14.80;7.68;;;17.30;88.60;;;;;;5092469;28;20020;-54
2022/05/15 10:05:34;;;;;;;16.00;7.43;;;17.30;85.00;;;;;;5091977;28;20024;-41
2022/05/15 10:08:20;;;;;;;17.85;7.15;;;17.40;83.80;;;;;;5092442;28;20028;-47
2022/05/15 10:11:01;;;;;;;11.68;6.57;;;17.60;86.00;;;;;;5090567;28;20020;-44
2022/05/15 10:13:37;;;;;;;17.55;7.10;;;17.70;84.40;;;;;;5092135;28;20032;-58
2022/05/15 10:16:23;;;;;;;15.93;7.15;;;17.80;83.80;;;;;;5092010;28;20388;-52
2022/05/15 10:19:20;;;;;;;14.18;6.10;;;17.90;81.90;;;;;;5092009;28;20079;-47
2022/05/15 10:21:50;;;;;;;15.65;5.32;;;18.00;83.40;;;;;;5091722;28;20496;-51
2022/05/15 10:24:22;;;;;;;10.80;4.50;;;17.90;74.30;;;;;;5090501;28;20500;-43
2022/05/15 10:27:06;;;;;;;13.50;4.45;;;17.90;76.10;;;;;;5092156;28;20024;-41
2022/05/15 10:29:45;;;;;;;12.80;5.07;;;17.90;72.10;;;;;;5092119;28;20058;-44
2022/05/15 10:32:32;;;;;;;7.50;3.83;;;17.80;73.60;;;;;;5091593;28;20095;-45
2022/05/15 10:34:58;;;;;;;13.93;5.28;;;17.70;72.60;;;;;;5051312;28;1160935;-50
2022/05/15 10:37:57;;;;;;;11.18;4.28;;;17.50;73.20;;;;;;5092541;28;20395;-53
2022/05/15 10:40:39;;;;;;;12.10;4.90;;;17.50;74.30;;;;;;5090948;28;20043;-46
2022/05/15 10:43:34;;;;;;;12.73;5.35;;;17.50;75.20;;;;;;5089865;28;20050;-40
2022/05/15 10:46:12;;;;;;;13.20;4.75;;;17.50;74.40;;;;;;5068303;28;20493;-41
2022/05/15 10:48:53;;;;;;;16.13;5.05;;;17.40;74.30;;;;;;5071129;28;20031;-42
2022/05/15 10:51:48;;;;;;;12.50;5.30;;;17.50;74.60;;;;;;5071620;28;20025;-42
2022/05/15 10:57:22;;;;;;;12.77;5.30;;;17.40;73.40;;;;;;5073956;28;20043;-49
2022/05/15 11:00:11;;;;;;;11.47;5.30;;;17.50;75.70;;;;;;5092021;28;20032;-46
2022/05/15 11:02:52;;;;;;;17.60;6.10;;;17.50;79.70;;;;;;5092305;28;20031;-48
2022/05/15 11:05:44;;;;;;;10.18;5.72;;;17.40;77.80;;;;;;5071668;28;20384;-49
2022/05/15 11:08:30;;;;;;;16.45;6.22;;;17.50;83.40;;;;;;5071512;28;20020;-40
2022/05/15 11:11:24;;;;;;;9.82;5.40;;;17.50;84.30;;;;;;5074456;28;20024;-44
2022/05/15 11:13:55;;;;;;;11.73;5.05;;;17.50;83.60;;;;;;5091647;28;20024;-41
2022/05/15 11:16:33;;;;;;;12.43;5.70;;;17.40;85.70;;;;;;5091910;28;20031;-42
2022/05/15 11:19:11;;;;;;;14.45;6.50;;;17.40;87.40;;;;;;5091364;28;20028;-47
2022/05/15 11:22:06;;;;;;;11.48;6.47;;;17.30;86.70;;;;;;5091656;28;20527;-39
2022/05/15 11:24:38;;;;;;;14.57;6.40;;;17.30;90.00;;;;;;5064226;28;20497;-46
2022/05/15 11:27:26;;;;;;;10.32;6.13;;;17.30;88.80;;;;;;5091740;28;20020;-47
2022/05/15 11:29:54;;;;;;;32.03;23.35;;;17.40;90.00;;;;;;5091799;28;20433;-45
2022/05/15 11:32:46;;;;;;;41.35;29.77;;;17.60;90.10;;;;;;5091680;28;20059;-41
2022/05/15 11:35:21;;;;;;;18.92;10.82;;;17.80;89.90;;;;;;5110314;28;20075;-46
2022/05/15 11:37:56;;;;;;;16.85;8.65;;;17.90;90.40;;;;;;5105536;28;20028;-46
2022/05/15 11:40:42;;;;;;;13.02;6.95;;;18.10;90.80;;;;;;5079280;28;20043;-51
2022/05/15 11:43:26;;;;;;;16.48;7.85;;;18.20;91.40;;;;;;5070907;28;20012;-53
2022/05/15 11:46:01;;;;;;;16.85;8.68;;;18.20;90.70;;;;;;5071331;28;20056;-50
2022/05/15 11:48:52;;;;;;;14.65;8.82;;;18.30;90.00;;;;;;5086034;28;20032;-47
2022/05/15 11:51:20;;;;;;;12.68;7.43;;;18.20;90.10;;;;;;5089528;28;20115;-50
2022/05/15 11:53:48;;;;;;;12.57;7.10;;;18.10;89.40;;;;;;5080054;28;20066;-46
2022/05/15 11:56:27;;;;;;;11.77;7.35;;;18.00;90.30;;;;;;5090761;28;20028;-45
2022/05/15 11:59:03;;;;;;;14.30;7.90;;;17.90;90.70;;;;;;5091265;28;20039;-48
2022/05/15 12:01:32;;;;;;;13.00;6.97;;;17.90;91.10;;;;;;5090827;28;20103;-44
2022/05/15 12:04:07;;;;;;;13.32;8.48;;;17.90;91.30;;;;;;5080577;28;20020;-48
2022/05/15 12:06:55;;;;;;;16.17;7.65;;;17.90;91.50;;;;;;5069299;28;20107;-47
2022/05/15 12:09:30;;;;;;;19.92;8.27;;;17.80;91.50;;;;;;5068179;28;20032;-53
2022/05/15 12:12:30;;;;;;;16.75;8.43;;;17.70;91.60;;;;;;5069688;28;20027;-51
2022/05/15 12:15:16;;;;;;;18.45;9.60;;;17.60;92.20;;;;;;5079289;28;20024;-46
2022/05/15 12:17:56;;;;;;;17.38;9.65;;;17.50;92.50;;;;;;5091147;28;20024;-56
2022/05/15 12:20:28;;;;;;;16.73;9.52;;;17.40;92.30;;;;;;5089293;28;20492;-42
2022/05/15 12:22:56;;;;;;;17.77;10.50;;;17.30;92.40;;;;;;5091070;28;20040;-51
2022/05/15 12:25:30;;;;;;;14.77;9.27;;;17.30;92.40;;;;;;5090991;28;20024;-52
2022/05/15 12:31:05;;;;;;;17.65;10.13;;;17.40;93.20;;;;;;5110271;28;20099;-56
2022/05/15 12:33:30;;;;;;;17.73;10.65;;;17.60;93.10;;;;;;5111145;28;20397;-52
2022/05/15 12:35:58;;;;;;;15.55;9.85;;;17.70;93.60;;;;;;5111287;28;20444;-62
2022/05/15 12:38:26;;;;;;;15.85;9.75;;;17.80;92.50;;;;;;5111304;28;20039;-37
2022/05/15 12:41:03;;;;;;;18.02;9.85;;;18.00;93.00;;;;;;5111276;28;20057;-38
2022/05/15 12:43:33;;;;;;;15.00;9.63;;;18.10;92.90;;;;;;5111082;28;20063;-38
2022/05/15 12:46:00;;;;;;;14.23;9.10;;;18.10;92.00;;;;;;5111223;28;20082;-58
2022/05/15 12:48:28;;;;;;;15.23;9.30;;;18.10;91.90;;;;;;5111412;28;20027;-52
2022/05/15 12:51:09;;;;;;;16.75;8.77;;;18.20;93.00;;;;;;5109775;28;20391;-38
2022/05/15 12:53:47;;;;;;;17.63;9.52;;;18.30;89.50;;;;;;5109893;28;20052;-49
2022/05/15 12:56:17;;;;;;;13.52;9.23;;;18.40;91.00;;;;;;5104306;28;20028;-47
2022/05/15 12:58:48;;;;;;;15.73;9.23;;;18.40;91.20;;;;;;5106453;28;20027;-48
2022/05/15 13:01:15;;;;;;;14.68;9.27;;;18.30;91.40;;;;;;5110975;28;20518;-53
2022/05/15 13:03:49;;;;;;;18.60;9.88;;;18.30;92.00;;;;;;5111169;28;20032;-45
2022/05/15 13:06:19;;;;;;;16.00;9.15;;;18.30;91.50;;;;;;5110993;28;20019;-51
2022/05/15 13:08:51;;;;;;;16.10;9.40;;;18.40;92.10;;;;;;5111150;28;20020;-55
2022/05/15 13:11:21;;;;;;;14.50;8.75;;;18.50;91.90;;;;;;5110964;28;20443;-49
2022/05/15 13:13:49;;;;;;;21.50;8.77;;;18.60;92.00;;;;;;5107413;28;20115;-52